Time;durP1;ratioP1;P1;durP2;ratioP2;P2;SDS_P1;SDS_P2;PMS_P1;PMS_P2;Temp;Humidity;BMP_temperature;BMP_pressure;BME280_temperature;BME280_humidity;BME280_pressure;Samples;Min_cycle;Max_cycle;Signal;HPM_P1;HPM_P2
2022/06/19 00:00:52;;;;;;;10.25;5.72;;;;;;;;;;4974450;28;20038;-68
2022/06/19 00:03:21;;;;;;;9.90;5.53;;;;;;;;;;4973038;28;20050;-67
2022/06/19 00:05:47;;;;;;;16.08;5.38;;;;;;;;;;4973787;28;20685;-68
2022/06/19 00:08:13;;;;;;;9.77;6.10;;;;;;;;;;4972709;28;20491;-67
2022/06/19 00:10:39;;;;;;;7.45;6.15;;;;;;;;;;4973081;28;20068;-68
2022/06/19 00:13:05;;;;;;;11.68;6.40;;;;;;;;;;4972642;28;20031;-68
2022/06/19 00:15:31;;;;;;;8.60;6.63;;;;;;;;;;4972669;28;20038;-67
2022/06/19 00:17:57;;;;;;;11.55;7.03;;;;;;;;;;4972714;28;20034;-68
2022/06/19 00:20:23;;;;;;;10.10;7.13;;;;;;;;;;4973811;28;20027;-67
2022/06/19 00:22:49;;;;;;;10.80;7.72;;;;;;;;;;4955130;28;20345;-67
2022/06/19 00:25:16;;;;;;;8.82;7.97;;;;;;;;;;4973148;28;20061;-67
2022/06/19 00:27:42;;;;;;;7.85;7.07;;;;;;;;;;4973119;28;20030;-68
2022/06/19 00:30:10;;;;;;;11.60;8.32;;;;;;;;;;4973486;28;20077;-68
2022/06/19 00:32:36;;;;;;;8.95;7.95;;;;;;;;;;4971456;28;20224;-68
2022/06/19 00:35:02;;;;;;;14.85;9.35;;;;;;;;;;4971904;28;20015;-67
2022/06/19 00:37:29;;;;;;;12.73;7.60;;;;;;;;;;4972945;28;20052;-68
2022/06/19 00:39:56;;;;;;;11.93;7.95;;;;;;;;;;4966240;28;20404;-68
2022/06/19 00:42:24;;;;;;;;;;;;;;;;;;4973547;28;20027;-67
2022/06/19 00:44:51;;;;;;;10.82;7.32;;;;;;;;;;4972761;28;19917;-67
2022/06/19 00:47:20;;;;;;;11.77;7.68;;;;;;;;;;4966192;28;20065;-67
2022/06/19 00:49:46;;;;;;;11.88;6.63;;;;;;;;;;4970263;28;20124;-67
2022/06/19 00:52:20;;;;;;;10.93;6.73;;;;;;;;;;4964794;28;20480;-67
2022/06/19 00:54:52;;;;;;;10.73;6.43;;;;;;;;;;4972026;28;20258;-67
2022/06/19 00:57:19;;;;;;;12.68;7.78;;;;;;;;;;4972342;28;20126;-67
2022/06/19 00:59:47;;;;;;;12.32;6.60;;;;;;;;;;4972584;28;20037;-68
2022/06/19 01:02:14;;;;;;;11.05;6.43;;;;;;;;;;4968360;28;20050;-67
2022/06/19 01:04:42;;;;;;;11.05;7.03;;;;;;;;;;4967491;28;20038;-67
2022/06/19 01:07:09;;;;;;;11.73;7.07;;;;;;;;;;4972531;28;20019;-67
2022/06/19 01:09:35;;;;;;;8.10;7.30;;;;;;;;;;4972376;28;20019;-68
2022/06/19 01:12:02;;;;;;;8.05;6.75;;;;;;;;;;4971772;28;20595;-67
2022/06/19 01:14:28;;;;;;;13.68;6.22;;;;;;;;;;4971737;28;20073;-68
2022/06/19 01:16:54;;;;;;;9.23;6.65;;;;;;;;;;4967359;28;20082;-67
2022/06/19 01:19:26;;;;;;;11.48;6.88;;;;;;;;;;4968017;28;20089;-67
2022/06/19 01:21:57;;;;;;;15.55;6.93;;;;;;;;;;4961439;28;20019;-67
2022/06/19 01:24:29;;;;;;;7.35;6.65;;;;;;;;;;4970974;28;20511;-67
2022/06/19 01:26:59;;;;;;;9.00;7.32;;;;;;;;;;4971198;28;20042;-68
2022/06/19 01:29:26;;;;;;;9.95;7.03;;;;;;;;;;4972725;28;20027;-67
2022/06/19 01:31:54;;;;;;;8.00;6.95;;;;;;;;;;4971523;28;20038;-67
2022/06/19 01:34:35;;;;;;;12.98;7.07;;;;;;;;;;4971889;28;20101;-67
2022/06/19 01:37:09;;;;;;;8.10;7.28;;;;;;;;;;4966038;28;20019;-67
2022/06/19 01:39:39;;;;;;;10.38;7.10;;;;;;;;;;4968510;28;20039;-68
2022/06/19 01:42:05;;;;;;;16.88;6.75;;;;;;;;;;4968169;28;20030;-67
2022/06/19 01:44:32;;;;;;;8.32;6.45;;;;;;;;;;4963475;28;20026;-67
2022/06/19 01:46:59;;;;;;;9.02;6.38;;;;;;;;;;4970656;28;20540;-67
2022/06/19 01:49:25;;;;;;;9.77;6.47;;;;;;;;;;4966313;28;20061;-67
2022/06/19 01:51:52;;;;;;;9.65;6.45;;;;;;;;;;4972221;28;20035;-67
2022/06/19 01:54:18;;;;;;;;;;;;;;;;;;4970066;28;20027;-68
2022/06/19 01:56:45;;;;;;;10.07;6.18;;;;;;;;;;4962857;28;20000;-67
2022/06/19 01:59:11;;;;;;;9.25;5.65;;;;;;;;;;4969019;28;20613;-67
2022/06/19 02:01:38;;;;;;;12.82;6.68;;;;;;;;;;4963648;28;20042;-67
2022/06/19 02:04:04;;;;;;;;;;;;;;;;;;4971684;28;20097;-67
2022/06/19 02:06:42;;;;;;;10.35;6.47;;;;;;;;;;4970655;28;20033;-67
2022/06/19 02:09:09;;;;;;;9.43;6.55;;;;;;;;;;4972274;28;20030;-67
2022/06/19 02:11:35;;;;;;;;;;;;;;;;;;4971596;28;20039;-67
2022/06/19 02:14:03;;;;;;;7.55;5.97;;;;;;;;;;4997703;22;19929;-61
2022/06/19 02:16:29;;;;;;;10.88;6.57;;;;;;;;;;4990350;28;20038;-61
2022/06/19 02:18:55;;;;;;;12.05;6.07;;;;;;;;;;4990659;28;20458;-61
2022/06/19 02:21:32;;;;;;;11.27;6.18;;;;;;;;;;4993831;28;20050;-60
2022/06/19 02:23:58;;;;;;;9.82;6.07;;;;;;;;;;4995286;28;20112;-61
2022/06/19 02:26:25;;;;;;;8.98;7.25;;;;;;;;;;4995408;28;20026;-60
2022/06/19 02:28:51;;;;;;;6.90;6.20;;;;;;;;;;4995399;28;20038;-60
2022/06/19 02:31:18;;;;;;;9.45;6.95;;;;;;;;;;4995256;28;20027;-61
2022/06/19 02:33:48;;;;;;;11.27;6.57;;;;;;;;;;4995032;28;20038;-60
2022/06/19 02:36:34;;;;;;;9.88;5.70;;;;;;;;;;4995398;28;20042;-61
2022/06/19 02:39:07;;;;;;;10.50;6.35;;;;;;;;;;5009888;28;20546;-61
2022/06/19 02:41:38;;;;;;;11.30;6.63;;;;;;;;;;4994869;28;20054;-61
2022/06/19 02:44:04;;;;;;;7.68;5.80;;;;;;;;;;4995143;28;20052;-61
2022/06/19 02:46:30;;;;;;;10.43;6.03;;;;;;;;;;4995221;28;20479;-61
2022/06/19 02:48:56;;;;;;;8.40;5.75;;;;;;;;;;4994913;28;20296;-61
2022/06/19 02:51:22;;;;;;;6.47;5.87;;;;;;;;;;4994800;28;20372;-59
2022/06/19 02:53:48;;;;;;;10.40;6.27;;;;;;;;;;4994595;28;20615;-61
2022/06/19 02:56:14;;;;;;;10.82;6.38;;;;;;;;;;4994741;28;20530;-60
2022/06/19 02:58:40;;;;;;;9.88;6.53;;;;;;;;;;4994476;28;20068;-60
2022/06/19 03:01:06;;;;;;;7.17;6.50;;;;;;;;;;4994367;28;20022;-61
2022/06/19 03:03:35;;;;;;;9.13;6.67;;;;;;;;;;5009890;28;20273;-61
2022/06/19 03:06:01;;;;;;;57.85;8.40;;;;;;;;;;4994609;28;20284;-61
2022/06/19 03:08:27;;;;;;;11.95;7.03;;;;;;;;;;4994280;28;20030;-61
2022/06/19 03:10:54;;;;;;;12.97;6.90;;;;;;;;;;4994514;28;20491;-61
2022/06/19 03:13:21;;;;;;;10.75;7.72;;;;;;;;;;4993138;28;20265;-61
2022/06/19 03:15:48;;;;;;;12.95;7.28;;;;;;;;;;4991545;28;20038;-61
2022/06/19 03:18:14;;;;;;;8.88;7.13;;;;;;;;;;4993054;28;20062;-61
2022/06/19 03:20:40;;;;;;;11.40;7.73;;;;;;;;;;4993956;28;20022;-61
2022/06/19 03:23:06;;;;;;;10.02;7.18;;;;;;;;;;4993433;28;20265;-61
2022/06/19 03:25:32;;;;;;;13.82;8.30;;;;;;;;;;4992807;28;20549;-60
2022/06/19 03:27:59;;;;;;;10.50;8.43;;;;;;;;;;5008874;28;20058;-61
2022/06/19 03:30:25;;;;;;;8.35;7.55;;;;;;;;;;4994302;28;20113;-61
2022/06/19 03:32:51;;;;;;;10.50;8.17;;;;;;;;;;4993970;28;20446;-61
2022/06/19 03:35:18;;;;;;;11.68;7.60;;;;;;;;;;4993408;28;20270;-61
2022/06/19 03:37:44;;;;;;;16.20;8.48;;;;;;;;;;4993711;28;20030;-61
2022/06/19 03:40:11;;;;;;;9.35;8.27;;;;;;;;;;4993920;28;20053;-61
2022/06/19 03:42:37;;;;;;;11.88;8.05;;;;;;;;;;4993964;28;20054;-61
2022/06/19 03:45:03;;;;;;;13.15;9.38;;;;;;;;;;4994208;28;20046;-61
2022/06/19 03:47:30;;;;;;;13.15;8.57;;;;;;;;;;4993792;28;20570;-61
2022/06/19 03:49:56;;;;;;;11.35;7.68;;;;;;;;;;4993607;28;20030;-61
2022/06/19 03:52:22;;;;;;;9.73;8.00;;;;;;;;;;4993854;28;20034;-61
2022/06/19 03:54:48;;;;;;;9.10;8.00;;;;;;;;;;4993851;28;20056;-61
2022/06/19 03:57:15;;;;;;;12.87;7.57;;;;;;;;;;4993598;28;20313;-60
2022/06/19 03:59:41;;;;;;;21.80;8.15;;;;;;;;;;4993329;28;20689;-60
2022/06/19 04:02:09;;;;;;;11.15;7.80;;;;;;;;;;4991762;28;20305;-59
2022/06/19 04:04:35;;;;;;;10.40;7.60;;;;;;;;;;4993657;28;20057;-60
2022/06/19 04:07:01;;;;;;;11.65;7.38;;;;;;;;;;4993807;28;20030;-60
2022/06/19 04:09:28;;;;;;;11.15;7.07;;;;;;;;;;4993689;28;20062;-60
2022/06/19 04:11:54;;;;;;;16.73;8.20;;;;;;;;;;4993422;28;20475;-58
2022/06/19 04:14:20;;;;;;;13.57;7.90;;;;;;;;;;4993267;28;20532;-60
2022/06/19 04:16:46;;;;;;;10.80;7.00;;;;;;;;;;4993552;28;20030;-60
2022/06/19 04:19:12;;;;;;;9.48;7.85;;;;;;;;;;4993177;28;20034;-60
2022/06/19 04:21:43;;;;;;;12.98;7.55;;;;;;;;;;4993472;28;20103;-60
2022/06/19 04:24:10;;;;;;;13.55;6.88;;;;;;;;;;4993072;28;20030;-60
2022/06/19 04:26:37;;;;;;;16.63;8.32;;;;;;;;;;4993350;28;20106;-60
2022/06/19 04:29:03;;;;;;;;;;;;;;;;;;4992942;28;20395;-60
2022/06/19 04:31:29;;;;;;;10.75;6.70;;;;;;;;;;4979645;28;19937;-60
2022/06/19 04:33:55;;;;;;;12.87;7.13;;;;;;;;;;4992976;28;20034;-60
2022/06/19 04:36:22;;;;;;;10.02;7.30;;;;;;;;;;5008347;28;20722;-60
2022/06/19 04:38:50;;;;;;;;;;;;;;;;;;5008396;28;20030;-60
2022/06/19 04:41:16;;;;;;;;;;;;;;;;;;4993401;28;20417;-60
2022/06/19 04:43:42;;;;;;;9.48;7.57;;;;;;;;;;4991917;28;20001;-60
2022/06/19 04:46:09;;;;;;;20.15;8.30;;;;;;;;;;4992553;28;20077;-60
2022/06/19 04:48:35;;;;;;;10.43;7.55;;;;;;;;;;4992891;28;20507;-60
2022/06/19 04:51:01;;;;;;;15.43;8.88;;;;;;;;;;4992825;28;20045;-60
2022/06/19 04:53:28;;;;;;;19.65;8.00;;;;;;;;;;4992723;28;20446;-60
2022/06/19 04:55:54;;;;;;;10.23;7.70;;;;;;;;;;4992349;28;20475;-60
2022/06/19 04:58:23;;;;;;;15.88;7.85;;;;;;;;;;4992630;28;20538;-60
2022/06/19 05:00:50;;;;;;;17.05;8.07;;;;;;;;;;4992210;28;20018;-60
2022/06/19 05:03:16;;;;;;;;;;;;;;;;;;4992990;28;20072;-60
2022/06/19 05:05:42;;;;;;;10.15;6.90;;;;;;;;;;4992820;28;19906;-60
2022/06/19 05:08:08;;;;;;;12.90;8.07;;;;;;;;;;4992140;28;20022;-58
2022/06/19 05:10:34;;;;;;;16.83;7.37;;;;;;;;;;4992596;28;20261;-60
2022/06/19 05:13:02;;;;;;;16.30;7.32;;;;;;;;;;4992274;28;20301;-60
2022/06/19 05:15:29;;;;;;;13.48;7.68;;;;;;;;;;4992296;28;20509;-60
2022/06/19 05:17:55;;;;;;;11.85;7.75;;;;;;;;;;4992145;28;20030;-60
2022/06/19 05:20:21;;;;;;;8.32;6.88;;;;;;;;;;4992571;28;20022;-60
2022/06/19 05:22:47;;;;;;;11.95;7.47;;;;;;;;;;4992018;28;20579;-58
2022/06/19 05:25:13;;;;;;;12.50;7.17;;;;;;;;;;4992324;28;20553;-60
2022/06/19 05:27:40;;;;;;;8.68;6.68;;;;;;;;;;4992147;28;20278;-59
2022/06/19 05:30:07;;;;;;;11.10;8.70;;;;;;;;;;4992337;28;20036;-58
2022/06/19 05:32:33;;;;;;;;;;;;;;;;;;4992170;28;20057;-57
2022/06/19 05:34:59;;;;;;;12.68;6.22;;;;;;;;;;4991071;28;19905;-60
2022/06/19 05:37:25;;;;;;;13.35;6.75;;;;;;;;;;4990802;28;20031;-56
2022/06/19 05:39:52;;;;;;;6.45;5.57;;;;;;;;;;4991373;28;20062;-57
2022/06/19 05:42:18;;;;;;;18.65;6.65;;;;;;;;;;4992034;28;20049;-56
2022/06/19 05:44:44;;;;;;;8.77;5.93;;;;;;;;;;4991368;28;20026;-58
2022/06/19 05:47:10;;;;;;;12.48;6.38;;;;;;;;;;4991644;28;20073;-54
2022/06/19 05:49:36;;;;;;;7.38;5.95;;;;;;;;;;4991880;28;20034;-53
2022/06/19 05:52:03;;;;;;;14.18;5.78;;;;;;;;;;4991692;28;20033;-53
2022/06/19 05:54:29;;;;;;;14.77;6.05;;;;;;;;;;4991490;28;20042;-57
2022/06/19 05:56:56;;;;;;;8.48;5.68;;;;;;;;;;4996312;28;20027;-53
2022/06/19 05:59:22;;;;;;;11.73;5.90;;;;;;;;;;4995758;28;20035;-53
2022/06/19 06:01:48;;;;;;;10.35;5.70;;;;;;;;;;4995608;28;20109;-55
2022/06/19 06:04:14;;;;;;;10.57;4.68;;;;;;;;;;4996047;28;20085;-56
2022/06/19 06:06:41;;;;;;;9.18;4.65;;;;;;;;;;4996037;28;20022;-55
2022/06/19 06:09:07;;;;;;;10.05;4.65;;;;;;;;;;4995924;28;20549;-50
2022/06/19 06:11:33;;;;;;;6.38;4.97;;;;;;;;;;4995293;28;20022;-52
2022/06/19 06:13:59;;;;;;;6.53;4.70;;;;;;;;;;4995172;28;20039;-52
2022/06/19 06:16:25;;;;;;;14.98;4.95;;;;;;;;;;4995889;28;20081;-55
2022/06/19 06:18:52;;;;;;;6.32;3.92;;;;;;;;;;4995442;28;20030;-57
2022/06/19 06:21:22;;;;;;;13.60;9.65;;;;;;;;;;4995487;28;20025;-62
2022/06/19 06:23:49;;;;;;;14.85;5.28;;;;;;;;;;4995290;28;20105;-60
2022/06/19 06:26:41;;;;;;;6.15;4.43;;;;;;;;;;4995466;28;20038;-61
2022/06/19 06:29:07;;;;;;;10.88;4.47;;;;;;;;;;5004063;28;20491;-61
2022/06/19 06:31:34;;;;;;;6.75;4.22;;;;;;;;;;4995890;28;20078;-61
2022/06/19 06:34:00;;;;;;;7.93;3.88;;;;;;;;;;4999300;28;20554;-60
2022/06/19 06:36:26;;;;;;;6.20;3.45;;;;;;;;;;5009871;28;20629;-61
2022/06/19 06:38:52;;;;;;;3.85;3.05;;;;;;;;;;4994803;28;20056;-57
2022/06/19 06:41:18;;;;;;;6.72;3.22;;;;;;;;;;4994914;28;20054;-60
2022/06/19 06:43:45;;;;;;;3.90;3.10;;;;;;;;;;4994815;28;20031;-61
2022/06/19 06:46:13;;;;;;;5.53;2.92;;;;;;;;;;4994697;28;20141;-61
2022/06/19 06:48:39;;;;;;;5.82;2.55;;;;;;;;;;4995277;28;20038;-60
2022/06/19 06:51:06;;;;;;;3.83;2.90;;;;;;;;;;4995269;28;20027;-61
2022/06/19 06:53:32;;;;;;;8.43;2.90;;;;;;;;;;4995236;28;20398;-60
2022/06/19 06:55:58;;;;;;;8.95;3.35;;;;;;;;;;4993771;28;20030;-61
2022/06/19 06:58:24;;;;;;;5.90;2.55;;;;;;;;;;4994461;28;20030;-61
2022/06/19 07:00:50;;;;;;;5.97;2.85;;;;;;;;;;4995169;28;20026;-61
2022/06/19 07:03:17;;;;;;;4.28;2.63;;;;;;;;;;4995301;28;20455;-60
2022/06/19 07:05:43;;;;;;;6.78;2.85;;;;;;;;;;4993722;28;20025;-61
2022/06/19 07:08:09;;;;;;;5.05;2.42;;;;;;;;;;4993341;28;20038;-61
2022/06/19 07:10:35;;;;;;;4.53;2.30;;;;;;;;;;4993566;28;20069;-61
2022/06/19 07:13:01;;;;;;;4.55;2.72;;;;;;;;;;4994694;28;20030;-60
2022/06/19 07:15:27;;;;;;;9.30;3.08;;;;;;;;;;4994345;28;20403;-63
2022/06/19 07:17:53;;;;;;;5.63;2.10;;;;;;;;;;4993486;28;20494;-50
2022/06/19 07:20:20;;;;;;;5.45;2.63;;;;;;;;;;4994332;28;20084;-49
2022/06/19 07:22:46;;;;;;;5.18;2.38;;;;;;;;;;4994821;28;20387;-50
2022/06/19 07:25:19;;;;;;;4.85;2.00;;;;;;;;;;4994652;28;20037;-50
2022/06/19 07:27:45;;;;;;;4.75;1.85;;;;;;;;;;4994616;28;20022;-53
2022/06/19 07:30:16;;;;;;;4.65;1.70;;;;;;;;;;4994777;28;20113;-49
2022/06/19 07:32:42;;;;;;;9.73;2.33;;;;;;;;;;4994654;28;20045;-52
2022/06/19 07:35:08;;;;;;;6.93;1.80;;;;;;;;;;4994228;28;20026;-49
2022/06/19 07:37:35;;;;;;;12.60;2.45;;;;;;;;;;4994147;28;20038;-52
2022/06/19 07:40:02;;;;;;;5.47;1.92;;;;;;;;;;4994424;28;20034;-51
2022/06/19 07:42:28;;;;;;;5.72;2.13;;;;;;;;;;4994576;28;20506;-49
2022/06/19 07:44:54;;;;;;;7.20;2.25;;;;;;;;;;4994401;28;20475;-54
2022/06/19 07:50:11;;;;;;;6.30;1.98;;;;;;;;;;4994699;28;20406;-49
2022/06/19 07:52:38;;;;;;;12.15;2.33;;;;;;;;;;4994379;28;20058;-51
2022/06/19 07:55:04;;;;;;;4.50;2.20;;;;;;;;;;4998509;28;20045;-51
2022/06/19 07:57:30;;;;;;;5.93;1.85;;;;;;;;;;4993385;28;20071;-52
2022/06/19 07:59:56;;;;;;;5.05;2.20;;;;;;;;;;4994021;28;20490;-48
2022/06/19 08:02:24;;;;;;;2.20;1.60;;;;;;;;;;5008900;28;20038;-49
2022/06/19 08:04:50;;;;;;;11.45;2.60;;;;;;;;;;4993976;28;20117;-49
2022/06/19 08:07:17;;;;;;;4.03;2.08;;;;;;;;;;4993700;28;20019;-48
2022/06/19 08:09:43;;;;;;;4.75;1.85;;;;;;;;;;4994045;28;20037;-50
2022/06/19 08:12:10;;;;;;;4.47;1.83;;;;;;;;;;4993941;28;20491;-49
2022/06/19 08:14:36;;;;;;;3.42;1.83;;;;;;;;;;4994073;28;20549;-50
2022/06/19 08:17:03;;;;;;;4.40;1.77;;;;;;;;;;4993548;28;20030;-57
2022/06/19 08:19:29;;;;;;;6.45;1.77;;;;;;;;;;4992656;28;20053;-49
2022/06/19 08:21:55;;;;;;;4.80;1.70;;;;;;;;;;4993030;28;20149;-55
2022/06/19 08:24:21;;;;;;;4.88;1.45;;;;;;;;;;4993486;28;20033;-51
2022/06/19 08:26:50;;;;;;;6.25;1.80;;;;;;;;;;4993503;28;20031;-52
2022/06/19 08:29:16;;;;;;;4.45;1.75;;;;;;;;;;4992054;28;20030;-49
2022/06/19 08:31:42;;;;;;;3.47;1.90;;;;;;;;;;4993542;28;20112;-51
2022/06/19 08:34:08;;;;;;;3.10;1.52;;;;;;;;;;4993509;28;20026;-56
2022/06/19 08:36:35;;;;;;;4.68;1.35;;;;;;;;;;4993404;28;20062;-54
2022/06/19 08:39:03;;;;;;;5.80;1.40;;;;;;;;;;4993112;28;20041;-51
2022/06/19 08:41:32;;;;;;;5.13;2.15;;;;;;;;;;4992034;28;20019;-50
2022/06/19 08:44:13;;;;;;;2.85;1.60;;;;;;;;;;4993318;28;20030;-50
2022/06/19 08:46:54;;;;;;;2.72;1.67;;;;;;;;;;4993234;28;20034;-50
2022/06/19 08:49:36;;;;;;;4.30;1.90;;;;;;;;;;4992980;28;20030;-53
2022/06/19 08:52:05;;;;;;;3.15;1.60;;;;;;;;;;4993048;28;20379;-49
2022/06/19 08:54:51;;;;;;;6.03;5.30;;;;;;;;;;4992993;28;20471;-50
2022/06/19 08:57:30;;;;;;;3.72;2.08;;;;;;;;;;4992905;28;20439;-49
2022/06/19 08:59:56;;;;;;;3.30;1.60;;;;;;;;;;4993204;28;20442;-50
2022/06/19 09:02:40;;;;;;;2.22;1.70;;;;;;;;;;4992907;28;20042;-50
2022/06/19 09:05:39;;;;;;;3.35;1.90;;;;;;;;;;4992863;28;20032;-54
2022/06/19 09:08:14;;;;;;;4.88;1.80;;;;;;;;;;4992608;28;20140;-50
2022/06/19 09:10:55;;;;;;;2.22;1.88;;;;;;;;;;4991514;28;20022;-49
2022/06/19 09:13:21;;;;;;;1.95;1.60;;;;;;;;;;4992054;28;20098;-54
2022/06/19 09:16:13;;;;;;;6.07;1.80;;;;;;;;;;4992431;28;20068;-58
2022/06/19 09:18:45;;;;;;;4.38;1.60;;;;;;;;;;4991345;28;20077;-52
2022/06/19 09:21:26;;;;;;;5.35;1.55;;;;;;;;;;4992867;28;20026;-49
2022/06/19 09:24:11;;;;;;;4.22;1.88;;;;;;;;;;4992705;28;20022;-53
2022/06/19 09:26:37;;;;;;;4.82;1.70;;;;;;;;;;4992445;28;20590;-53
2022/06/19 09:29:26;;;;;;;5.28;1.80;;;;;;;;;;5007200;28;20026;-52
2022/06/19 09:31:55;;;;;;;4.90;1.70;;;;;;;;;;4982543;28;20052;-52
2022/06/19 09:34:44;;;;;;;3.80;1.60;;;;;;;;;;4992485;28;20026;-52
2022/06/19 09:37:22;;;;;;;3.83;2.05;;;;;;;;;;4991999;28;20059;-53
2022/06/19 09:40:01;;;;;;;4.80;2.33;;;;;;;;;;4992259;28;20057;-56
2022/06/19 09:42:30;;;;;;;2.53;1.58;;;;;;;;;;4992471;28;20025;-61
2022/06/19 09:44:59;;;;;;;3.17;1.13;;;;;;;;;;4991051;28;20475;-61
2022/06/19 09:47:25;;;;;;;3.55;1.20;;;;;;;;;;4991548;28;20022;-61
2022/06/19 09:49:55;;;;;;;4.55;1.50;;;;;;;;;;4991825;28;20077;-61
2022/06/19 09:52:28;;;;;;;6.88;2.53;;;;;;;;;;4992156;28;20031;-62
2022/06/19 09:54:56;;;;;;;5.78;2.13;;;;;;;;;;4992376;28;20050;-62
2022/06/19 09:57:46;;;;;;;6.40;2.55;;;;;;;;;;4992080;28;20026;-61
2022/06/19 10:00:14;;;;;;;6.13;1.73;;;;;;;;;;4986836;28;20057;-62
2022/06/19 10:02:55;;;;;;;7.07;1.75;;;;;;;;;;4992160;28;20026;-62
2022/06/19 10:05:21;;;;;;;2.90;1.80;;;;;;;;;;4992073;28;20080;-62
2022/06/19 10:08:00;;;;;;;2.25;1.60;;;;;;;;;;4992161;28;20022;-61
2022/06/19 10:10:44;;;;;;;4.05;2.78;;;;;;;;;;4992196;28;20042;-61
2022/06/19 10:13:33;;;;;;;3.55;2.60;;;;;;;;;;4992127;28;20081;-61
2022/06/19 10:16:01;;;;;;;9.15;2.03;;;;;;;;;;4973067;28;20085;-61
2022/06/19 10:18:35;;;;;;;5.80;1.50;;;;;;;;;;4991522;28;20031;-62
2022/06/19 10:21:11;;;;;;;3.05;1.75;;;;;;;;;;4990802;28;20402;-62
2022/06/19 10:23:46;;;;;;;3.72;1.88;;;;;;;;;;4990797;28;20050;-61
2022/06/19 10:26:19;;;;;;;4.40;2.05;;;;;;;;;;4992163;28;20114;-62
2022/06/19 10:29:03;;;;;;;9.15;1.80;;;;;;;;;;4991357;28;20410;-61
2022/06/19 10:31:33;;;;;;;6.07;2.03;;;;;;;;;;4990816;28;20089;-61
2022/06/19 10:34:05;;;;;;;3.67;2.30;;;;;;;;;;4991293;28;20586;-61
2022/06/19 10:36:50;;;;;;;3.40;1.90;;;;;;;;;;4991957;28;20039;-62
2022/06/19 10:39:19;;;;;;;4.07;2.63;;;;;;;;;;4991674;28;20030;-62
2022/06/19 10:42:06;;;;;;;3.35;2.88;;;;;;;;;;4993261;28;20060;-61
2022/06/19 10:44:46;;;;;;;4.03;2.03;;;;;;;;;;4995503;28;20037;-62
2022/06/19 10:47:17;;;;;;;3.80;2.47;;;;;;;;;;4995376;28;20054;-61
2022/06/19 10:49:51;;;;;;;6.18;2.30;;;;;;;;;;4995381;28;20116;-61
2022/06/19 10:52:24;;;;;;;3.67;2.10;;;;;;;;;;4996021;28;20040;-61
2022/06/19 10:54:56;;;;;;;6.10;2.33;;;;;;;;;;4994628;28;20423;-62
2022/06/19 10:57:22;;;;;;;6.60;2.20;;;;;;;;;;4994022;28;20042;-62
2022/06/19 10:59:48;;;;;;;5.07;2.10;;;;;;;;;;4993562;28;20022;-61
2022/06/19 11:05:15;;;;;;;3.78;2.63;;;;;;;;;;4994382;28;20033;-60
2022/06/19 11:07:41;;;;;;;4.45;2.05;;;;;;;;;;4993335;28;20037;-61
2022/06/19 11:10:11;;;;;;;7.53;5.68;;;;;;;;;;4992276;28;20109;-60
2022/06/19 11:12:42;;;;;;;5.78;2.28;;;;;;;;;;4994122;28;20058;-60
2022/06/19 11:15:26;;;;;;;4.10;2.33;;;;;;;;;;4994292;28;20030;-60
2022/06/19 11:18:11;;;;;;;4.45;2.45;;;;;;;;;;4994449;28;20038;-60
2022/06/19 11:20:38;;;;;;;4.45;2.40;;;;;;;;;;4994886;28;20034;-61
2022/06/19 11:23:03;;;;;;;;;;;;;;;;;;4994582;28;20081;-59
2022/06/19 11:25:37;;;;;;;4.50;2.22;;;;;;;;;;4993404;28;19968;-60
2022/06/19 11:28:17;;;;;;;4.45;2.40;;;;;;;;;;4994561;28;20030;-60
2022/06/19 11:30:46;;;;;;;8.52;1.95;;;;;;;;;;4982660;28;20034;-58
2022/06/19 11:33:14;;;;;;;2.67;2.05;;;;;;;;;;4993493;28;20054;-60
2022/06/19 11:35:45;;;;;;;2.72;1.70;;;;;;;;;;4994650;28;20130;-61
2022/06/19 11:38:13;;;;;;;3.72;2.08;;;;;;;;;;4993804;28;20022;-60
2022/06/19 11:40:42;;;;;;;6.35;2.00;;;;;;;;;;4994253;28;20054;-58
2022/06/19 11:43:26;;;;;;;4.10;2.13;;;;;;;;;;4994418;28;20383;-60
2022/06/19 11:46:00;;;;;;;5.10;2.35;;;;;;;;;;4994194;28;20037;-58
2022/06/19 11:48:26;;;;;;;3.90;2.03;;;;;;;;;;4993686;28;20050;-60
2022/06/19 11:50:56;;;;;;;3.20;1.95;;;;;;;;;;4989576;28;20030;-60
2022/06/19 11:53:29;;;;;;;7.22;2.00;;;;;;;;;;4991695;28;20392;-60
2022/06/19 11:56:13;;;;;;;4.25;1.83;;;;;;;;;;4993292;28;20028;-60
2022/06/19 11:58:41;;;;;;;15.02;3.03;;;;;;;;;;5007707;28;20038;-60
2022/06/19 12:01:10;;;;;;;8.70;2.38;;;;;;;;;;4993945;28;20018;-61
2022/06/19 12:03:50;;;;;;;4.50;2.33;;;;;;;;;;4993784;28;20022;-60
2022/06/19 12:06:17;;;;;;;5.25;2.10;;;;;;;;;;4992685;28;20479;-60
2022/06/19 12:08:46;;;;;;;5.10;1.98;;;;;;;;;;4993628;28;20507;-60
2022/06/19 12:11:13;;;;;;;3.97;1.90;;;;;;;;;;4993389;28;20038;-60
2022/06/19 12:13:41;;;;;;;2.85;2.00;;;;;;;;;;4993858;28;20497;-58
2022/06/19 12:16:16;;;;;;;2.03;1.75;;;;;;;;;;4993712;28;20053;-61
2022/06/19 12:18:42;;;;;;;6.53;2.10;;;;;;;;;;4993284;28;20045;-60
2022/06/19 12:21:25;;;;;;;3.95;1.80;;;;;;;;;;4992409;28;20023;-60
2022/06/19 12:23:54;;;;;;;2.85;2.03;;;;;;;;;;4993398;28;20030;-60
2022/06/19 12:26:26;;;;;;;3.35;2.28;;;;;;;;;;4993279;28;20487;-60
2022/06/19 12:28:53;;;;;;;4.55;2.08;;;;;;;;;;5006002;28;20025;-60
2022/06/19 12:31:19;;;;;;;2.35;1.90;;;;;;;;;;4993443;28;20109;-60
2022/06/19 12:33:48;;;;;;;5.47;2.42;;;;;;;;;;4993435;28;20038;-60
2022/06/19 12:36:16;;;;;;;3.72;2.28;;;;;;;;;;4992252;28;20066;-58
2022/06/19 12:38:42;;;;;;;5.93;2.10;;;;;;;;;;4993064;28;20038;-60
2022/06/19 12:41:16;;;;;;;4.05;2.13;;;;;;;;;;4992919;28;20084;-61
2022/06/19 12:43:49;;;;;;;5.90;2.00;;;;;;;;;;4992983;28;20109;-59
2022/06/19 12:46:21;;;;;;;5.47;2.10;;;;;;;;;;4993331;28;20029;-58
2022/06/19 12:48:54;;;;;;;9.07;2.78;;;;;;;;;;4993078;28;20503;-61
2022/06/19 12:51:29;;;;;;;6.22;2.20;;;;;;;;;;4993161;28;20030;-60
2022/06/19 12:54:02;;;;;;;3.83;1.85;;;;;;;;;;4991521;28;20495;-60
2022/06/19 12:56:28;;;;;;;6.75;2.03;;;;;;;;;;4993156;28;20480;-59
2022/06/19 12:58:57;;;;;;;2.60;2.13;;;;;;;;;;4992915;28;20042;-60
2022/06/19 13:01:31;;;;;;;2.55;2.05;;;;;;;;;;4992679;28;20030;-61
2022/06/19 13:04:16;;;;;;;5.82;2.30;;;;;;;;;;4992115;28;20022;-60
2022/06/19 13:07:03;;;;;;;4.38;2.13;;;;;;;;;;4976710;28;20109;-60
2022/06/19 13:09:41;;;;;;;5.43;2.13;;;;;;;;;;4992699;28;20026;-58
2022/06/19 13:12:17;;;;;;;5.82;1.92;;;;;;;;;;4992103;28;20034;-60
2022/06/19 13:14:43;;;;;;;4.85;2.35;;;;;;;;;;4989484;28;20034;-61
2022/06/19 13:17:09;;;;;;;3.63;2.03;;;;;;;;;;4991371;28;20033;-61
2022/06/19 13:19:56;;;;;;;3.97;1.80;;;;;;;;;;4992674;28;20438;-61
2022/06/19 13:22:33;;;;;;;2.40;2.08;;;;;;;;;;4992548;28;20040;-61
2022/06/19 13:25:18;;;;;;;5.43;2.22;;;;;;;;;;4992319;28;20041;-61
2022/06/19 13:28:05;;;;;;;6.60;2.38;;;;;;;;;;4989260;28;20057;-61
2022/06/19 13:30:34;;;;;;;3.80;2.28;;;;;;;;;;4989709;28;20041;-61
2022/06/19 13:33:06;;;;;;;4.43;3.15;;;;;;;;;;4992598;28;20553;-61
2022/06/19 13:35:42;;;;;;;3.95;2.10;;;;;;;;;;5007702;28;20035;-62
2022/06/19 13:38:29;;;;;;;2.92;1.80;;;;;;;;;;4982585;28;20479;-61
2022/06/19 13:41:01;;;;;;;5.00;2.40;;;;;;;;;;4992376;28;20499;-62
2022/06/19 13:43:33;;;;;;;2.70;2.05;;;;;;;;;;4992379;28;20045;-62
2022/06/19 13:45:59;;;;;;;5.18;2.75;;;;;;;;;;4992354;28;20018;-62
2022/06/19 13:48:47;;;;;;;7.15;2.15;;;;;;;;;;4991765;28;20037;-62
2022/06/19 13:51:13;;;;;;;7.35;2.47;;;;;;;;;;4991716;28;20450;-62
2022/06/19 13:53:49;;;;;;;6.10;2.45;;;;;;;;;;4991438;28;20439;-62
2022/06/19 13:56:33;;;;;;;4.35;2.28;;;;;;;;;;4992188;28;20031;-64
2022/06/19 13:59:10;;;;;;;3.00;1.92;;;;;;;;;;4991684;28;20176;-63
2022/06/19 14:01:39;;;;;;;4.15;1.98;;;;;;;;;;4991839;28;20101;-63
2022/06/19 14:07:01;;;;;;;7.32;2.63;;;;;;;;;;4992558;28;20114;-62
2022/06/19 14:09:33;;;;;;;9.07;2.58;;;;;;;;;;4992155;28;20062;-63
2022/06/19 14:12:07;;;;;;;4.13;2.20;;;;;;;;;;4989667;28;20027;-63
2022/06/19 14:14:41;;;;;;;8.18;3.28;;;;;;;;;;5010940;22;20045;-59
2022/06/19 14:17:22;;;;;;;5.57;2.92;;;;;;;;;;5029822;28;20382;-59
2022/06/19 14:19:54;;;;;;;5.93;2.45;;;;;;;;;;5035409;28;20093;-60
2022/06/19 14:22:27;;;;;;;6.53;2.20;;;;;;;;;;5035421;28;20036;-60
2022/06/19 14:25:06;;;;;;;5.28;2.17;;;;;;;;;;5033753;28;20108;-59
2022/06/19 14:27:46;;;;;;;6.43;2.30;;;;;;;;;;5023990;28;20057;-60
2022/06/19 14:30:18;;;;;;;4.40;2.38;;;;;;;;;;5014891;28;20033;-60
2022/06/19 14:32:44;;;;;;;4.53;2.10;;;;;;;;;;5014564;28;20026;-60
2022/06/19 14:35:11;;;;;;;6.30;2.10;;;;;;;;;;5015787;28;20026;-60
2022/06/19 14:37:48;;;;;;;38.83;4.68;;;;;;;;;;5015164;28;20060;-60
2022/06/19 14:40:20;;;;;;;2.72;2.10;;;;;;;;;;5026246;28;20033;-60
2022/06/19 14:42:51;;;;;;;3.65;1.85;;;;;;;;;;5026586;28;20112;-60
2022/06/19 14:45:24;;;;;;;6.47;2.42;;;;;;;;;;5021989;28;20026;-60
2022/06/19 14:48:04;;;;;;;6.50;2.25;;;;;;;;;;5016303;28;20045;-60
2022/06/19 14:50:48;;;;;;;6.57;2.05;;;;;;;;;;5034847;28;20029;-60
2022/06/19 14:53:23;;;;;;;3.40;1.65;;;;;;;;;;5025069;28;20033;-59
2022/06/19 14:55:53;;;;;;;6.47;2.53;;;;;;;;;;5015130;28;20426;-59
2022/06/19 14:58:20;;;;;;;9.82;2.67;;;;;;;;;;5027250;28;20033;-59
2022/06/19 15:00:55;;;;;;;6.05;2.38;;;;;;;;;;5007899;28;20031;-59
2022/06/19 15:03:28;;;;;;;4.10;1.90;;;;;;;;;;5012321;28;20578;-59
2022/06/19 15:05:56;;;;;;;6.25;1.88;;;;;;;;;;5032096;28;20478;-59
2022/06/19 15:08:30;;;;;;;7.28;2.30;;;;;;;;;;5017368;28;20026;-60